createdAt,value
2022-08-17T00:01:52.051Z,70.19
2022-08-17T00:04:24.785Z,70.06
2022-08-17T00:06:56.370Z,70.16
2022-08-17T00:09:27.989Z,70.26
2022-08-17T00:12:41.040Z,70.26
2022-08-17T00:14:54.464Z,70.13
2022-08-17T00:17:25.966Z,70.32
2022-08-17T00:19:57.539Z,70.29
2022-08-17T00:22:34.291Z,70.42
2022-08-17T00:25:09.249Z,70.41
2022-08-17T00:27:40.901Z,70.59
2022-08-17T00:30:14.559Z,70.64
2022-08-17T00:33:23.044Z,70.68
2022-08-17T00:35:38.913Z,70.88
2022-08-17T00:38:30.937Z,71.06
2022-08-17T00:41:04.575Z,71.33
2022-08-17T00:43:37.149Z,71.62
2022-08-17T00:46:10.103Z,71.69
2022-08-17T00:48:44.335Z,71.66
2022-08-17T00:51:18.774Z,71.85
2022-08-17T00:53:52.866Z,71.91
2022-08-17T00:56:28.948Z,71.80
2022-08-17T00:59:00.685Z,72.03
2022-08-17T01:01:32.929Z,72.03
2022-08-17T01:04:05.520Z,72.09
2022-08-17T01:06:37.134Z,71.97
2022-08-17T01:09:09.024Z,72.28
2022-08-17T01:11:41.034Z,72.06
2022-08-17T01:14:12.448Z,72.02
2022-08-17T01:16:44.000Z,72.03
2022-08-17T01:19:17.765Z,71.86
2022-08-17T01:21:52.228Z,71.70
2022-08-17T01:24:23.580Z,71.89
2022-08-17T01:26:56.686Z,71.80
2022-08-17T01:29:31.060Z,71.79
2022-08-17T01:32:04.077Z,71.85
2022-08-17T01:34:43.553Z,71.85
2022-08-17T01:37:29.062Z,71.83
2022-08-17T01:40:04.363Z,72.07
2022-08-17T01:42:38.212Z,72.22
2022-08-17T01:45:11.539Z,72.27
2022-08-17T01:47:43.539Z,72.42
2022-08-17T01:50:18.867Z,72.51
2022-08-17T01:52:52.037Z,72.65
2022-08-17T01:55:27.509Z,72.69
2022-08-17T01:57:58.912Z,72.95
2022-08-17T02:00:59.425Z,72.84
2022-08-17T02:03:22.168Z,72.91
2022-08-17T02:05:53.914Z,73.00
2022-08-17T02:08:39.351Z,73.09
2022-08-17T02:11:21.497Z,73.13
2022-08-17T02:13:57.783Z,73.13
2022-08-17T02:16:37.432Z,73.10
2022-08-17T02:19:10.773Z,73.04
2022-08-17T02:21:42.717Z,73.00
2022-08-17T02:24:17.073Z,72.99
2022-08-17T02:26:48.491Z,72.87
2022-08-17T02:29:20.271Z,72.67
2022-08-17T02:31:51.674Z,72.90
2022-08-17T02:34:23.026Z,72.88
2022-08-17T02:36:54.677Z,72.80
2022-08-17T02:39:26.106Z,72.93
2022-08-17T02:42:03.249Z,72.87
2022-08-17T02:44:40.242Z,72.93
2022-08-17T02:47:12.678Z,72.87
2022-08-17T02:49:55.870Z,72.92
2022-08-17T02:52:42.881Z,72.93
2022-08-17T02:55:16.205Z,73.08
2022-08-17T02:57:48.028Z,72.99
2022-08-17T03:00:22.767Z,73.04
2022-08-17T03:02:54.331Z,73.33
2022-08-17T03:05:29.968Z,73.36
2022-08-17T03:08:01.528Z,73.29
2022-08-17T03:10:32.969Z,73.37
2022-08-17T03:13:04.263Z,73.27
2022-08-17T03:15:36.359Z,73.41
2022-08-17T03:18:19.109Z,73.44
2022-08-17T03:20:58.247Z,73.33
2022-08-17T03:23:30.461Z,73.34
2022-08-17T03:26:02.494Z,73.38
2022-08-17T03:28:33.814Z,73.57
2022-08-17T03:31:05.918Z,73.52
2022-08-17T03:33:37.534Z,73.51
2022-08-17T03:36:10.027Z,73.16
2022-08-17T03:38:41.577Z,73.09
2022-08-17T03:41:13.996Z,73.14
2022-08-17T03:43:45.456Z,72.88
2022-08-17T03:46:35.601Z,72.86
2022-08-17T03:49:27.301Z,72.94
2022-08-17T03:52:16.886Z,72.88
2022-08-17T03:55:06.252Z,72.86
2022-08-17T03:57:58.074Z,73.05
2022-08-17T04:00:29.490Z,73.11
2022-08-17T04:03:01.089Z,73.21
2022-08-17T04:05:32.349Z,73.31
2022-08-17T04:08:06.333Z,73.30
2022-08-17T04:10:38.486Z,73.36
2022-08-17T04:13:16.558Z,73.27
2022-08-17T04:15:56.557Z,73.04
2022-08-17T04:18:28.006Z,73.33
2022-08-17T04:20:59.557Z,73.42
2022-08-17T04:23:34.124Z,73.32
2022-08-17T04:26:05.826Z,73.29
2022-08-17T04:28:37.294Z,73.36
2022-08-17T04:31:09.594Z,73.20
2022-08-17T04:33:42.857Z,73.32
2022-08-17T04:36:15.476Z,73.17
2022-08-17T04:38:47.535Z,72.97
2022-08-17T04:41:38.840Z,73.00
2022-08-17T04:44:14.840Z,72.20
2022-08-17T04:47:07.508Z,72.24
2022-08-17T04:49:42.132Z,71.96
2022-08-17T04:52:32.248Z,71.93
2022-08-17T04:55:06.578Z,72.23
2022-08-17T04:57:41.802Z,72.32
2022-08-17T05:00:16.847Z,72.40
2022-08-17T05:02:50.183Z,72.16
2022-08-17T05:05:22.639Z,72.26
2022-08-17T05:07:54.714Z,71.91
2022-08-17T05:10:26.444Z,71.66
2022-08-17T05:13:01.162Z,72.26
2022-08-17T05:15:36.062Z,72.12
2022-08-17T05:18:10.409Z,70.26
2022-08-17T05:20:42.704Z,69.42
2022-08-17T05:23:15.543Z,69.96
2022-08-17T05:25:51.731Z,71.29
2022-08-17T05:28:27.474Z,70.50
2022-08-17T05:31:01.542Z,67.78
2022-08-17T05:33:34.536Z,66.39
2022-08-17T05:36:06.991Z,64.86
2022-08-17T05:38:38.588Z,64.35
2022-08-17T05:41:10.442Z,62.54
2022-08-17T05:43:44.473Z,60.01
2022-08-17T05:46:18.132Z,59.24
2022-08-17T05:48:54.317Z,59.11
2022-08-17T05:51:39.877Z,58.85
2022-08-17T05:54:17.145Z,57.62
2022-08-17T05:57:01.171Z,56.42
2022-08-17T05:59:38.228Z,55.18
2022-08-17T06:02:16.653Z,54.38
2022-08-17T06:04:56.593Z,54.99
2022-08-17T06:07:33.761Z,55.56
2022-08-17T06:10:07.735Z,56.03
2022-08-17T06:12:44.597Z,56.71
2022-08-17T06:15:27.942Z,57.08
2022-08-17T06:18:01.621Z,57.41
2022-08-17T06:20:37.570Z,57.68
2022-08-17T06:23:21.169Z,58.22
2022-08-17T06:25:53.968Z,58.33
2022-08-17T06:28:28.339Z,58.39
2022-08-17T06:31:04.008Z,57.97
2022-08-17T06:33:37.757Z,57.56
2022-08-17T06:36:15.882Z,57.30
2022-08-17T06:38:54.513Z,57.43
2022-08-17T06:41:28.803Z,58.24
2022-08-17T06:44:12.073Z,58.00
2022-08-17T06:47:06.409Z,59.21
2022-08-17T06:49:42.297Z,57.86
2022-08-17T06:52:37.617Z,56.79
2022-08-17T06:55:17.986Z,57.99
2022-08-17T06:57:53.127Z,57.10
2022-08-17T07:00:25.735Z,54.78
2022-08-17T07:02:59.987Z,54.19
2022-08-17T07:05:34.110Z,52.38
2022-08-17T07:08:11.979Z,51.31
2022-08-17T07:10:46.380Z,51.97
2022-08-17T07:13:31.317Z,52.14
2022-08-17T07:16:06.284Z,52.74
2022-08-17T07:18:37.748Z,52.21
2022-08-17T07:21:17.650Z,50.77
2022-08-17T07:23:55.875Z,50.07
2022-08-17T07:26:27.935Z,49.44
2022-08-17T07:29:01.415Z,48.22
2022-08-17T07:31:33.861Z,46.51
2022-08-17T07:34:08.352Z,44.57
2022-08-17T07:36:39.842Z,45.49
2022-08-17T07:39:11.998Z,44.60
2022-08-17T07:41:53.354Z,44.50
2022-08-17T07:44:30.898Z,45.10
2022-08-17T07:47:20.164Z,44.59
2022-08-17T07:49:51.740Z,43.30
2022-08-17T07:52:50.295Z,43.40
2022-08-17T07:55:33.142Z,43.39
2022-08-17T07:58:04.791Z,44.02
2022-08-17T08:00:37.583Z,44.53
2022-08-17T08:03:16.373Z,45.06
2022-08-17T08:05:56.691Z,45.76
2022-08-17T08:08:29.774Z,46.21
2022-08-17T08:11:06.884Z,46.53
2022-08-17T08:13:42.894Z,46.99
2022-08-17T08:16:21.274Z,47.00
2022-08-17T08:18:56.768Z,48.05
2022-08-17T08:21:37.031Z,48.09
2022-08-17T08:24:23.109Z,48.17
2022-08-17T08:27:00.292Z,48.36
2022-08-17T08:29:38.378Z,48.46
2022-08-17T08:32:14.113Z,48.31
2022-08-17T08:35:01.966Z,48.41
2022-08-17T08:37:49.420Z,48.59
2022-08-17T08:40:35.390Z,48.65
2022-08-17T08:43:11.954Z,48.11
2022-08-17T08:45:48.476Z,47.97
2022-08-17T08:48:56.768Z,47.89
2022-08-17T08:51:23.585Z,48.23
2022-08-17T08:54:00.691Z,48.64
2022-08-17T08:56:37.490Z,48.62
2022-08-17T08:59:16.753Z,49.04
2022-08-17T09:01:55.532Z,48.66
2022-08-17T09:04:44.910Z,48.42
2022-08-17T09:07:29.774Z,48.39
2022-08-17T09:10:05.383Z,48.01
2022-08-17T09:12:41.901Z,47.84
2022-08-17T09:15:17.971Z,47.75
2022-08-17T09:18:08.856Z,47.58
2022-08-17T09:20:50.177Z,47.51
2022-08-17T09:23:27.487Z,47.24
2022-08-17T09:26:02.345Z,47.07
2022-08-17T09:28:35.882Z,47.12
2022-08-17T09:31:09.561Z,47.47
2022-08-17T09:33:42.744Z,47.57
2022-08-17T09:36:17.248Z,47.55
2022-08-17T09:38:54.621Z,47.95
2022-08-17T09:41:28.284Z,48.33
2022-08-17T09:44:01.798Z,48.42
2022-08-17T09:46:37.465Z,48.80
2022-08-17T09:49:15.288Z,48.34
2022-08-17T09:51:50.431Z,48.08
2022-08-17T09:54:41.282Z,48.44
2022-08-17T09:57:29.918Z,48.73
2022-08-17T10:00:19.156Z,48.83
2022-08-17T10:02:56.986Z,48.16
2022-08-17T10:05:33.159Z,48.14
2022-08-17T10:08:09.719Z,48.38
2022-08-17T10:10:52.237Z,48.20
2022-08-17T10:13:34.616Z,47.56
2022-08-17T10:16:20.903Z,47.10
2022-08-17T10:18:57.355Z,47.12
2022-08-17T10:21:46.474Z,47.35
2022-08-17T10:24:37.861Z,47.11
2022-08-17T10:27:14.547Z,47.00
2022-08-17T10:29:49.741Z,46.56
2022-08-17T10:32:27.071Z,46.24
2022-08-17T10:35:04.575Z,46.69
2022-08-17T10:37:46.847Z,46.88
2022-08-17T10:40:26.494Z,46.95
2022-08-17T10:43:00.750Z,46.89
2022-08-17T10:45:35.484Z,47.23
2022-08-17T10:48:20.246Z,47.28
2022-08-17T10:51:00.167Z,47.11
2022-08-17T10:53:49.034Z,47.25
2022-08-17T10:56:22.115Z,47.33
2022-08-17T10:58:55.617Z,47.32
2022-08-17T11:01:53.060Z,47.34
2022-08-17T11:04:29.043Z,47.29
2022-08-17T11:07:07.673Z,46.86
2022-08-17T11:09:49.959Z,46.83
2022-08-17T11:12:33.081Z,46.83
2022-08-17T11:15:14.628Z,47.52
2022-08-17T11:17:51.633Z,47.28
2022-08-17T11:20:41.199Z,46.42
2022-08-17T11:23:22.502Z,45.73
2022-08-17T11:25:56.029Z,45.37
2022-08-17T11:28:34.952Z,45.39
2022-08-17T11:31:10.325Z,45.52
2022-08-17T11:34:04.912Z,45.65
2022-08-17T11:36:52.314Z,45.09
2022-08-17T11:39:29.481Z,44.34
2022-08-17T11:42:06.389Z,43.70
2022-08-17T11:44:42.207Z,43.59
2022-08-17T11:48:08.889Z,43.90
2022-08-17T11:51:05.821Z,43.79
2022-08-17T11:53:50.713Z,44.52
2022-08-17T11:56:41.424Z,44.41
2022-08-17T11:59:36.245Z,44.65
2022-08-17T12:02:32.330Z,44.92
2022-08-17T12:05:11.919Z,45.13
2022-08-17T12:07:45.172Z,45.61
2022-08-17T12:10:19.487Z,45.52
2022-08-17T12:12:52.756Z,45.77
2022-08-17T12:15:29.347Z,46.26
2022-08-17T12:18:00.660Z,46.40
2022-08-17T12:20:36.184Z,46.16
2022-08-17T12:23:11.005Z,46.08
2022-08-17T12:25:45.457Z,45.79
2022-08-17T12:28:23.211Z,45.63
2022-08-17T12:30:55.234Z,45.23
2022-08-17T12:33:28.977Z,44.77
2022-08-17T12:36:03.264Z,44.93
2022-08-17T12:38:36.405Z,44.75
2022-08-17T12:41:22.672Z,45.17
2022-08-17T12:44:02.747Z,44.66
2022-08-17T12:46:48.090Z,44.59
2022-08-17T12:49:23.180Z,44.35
2022-08-17T12:51:59.117Z,43.97
2022-08-17T12:54:33.957Z,44.22
2022-08-17T12:57:11.260Z,43.63
2022-08-17T12:59:44.221Z,42.69
2022-08-17T13:02:22.264Z,41.53
2022-08-17T13:04:53.841Z,41.20
2022-08-17T13:07:37.411Z,41.17
2022-08-17T13:10:09.181Z,41.35
2022-08-17T13:12:40.538Z,40.93
2022-08-17T13:15:19.050Z,41.03
2022-08-17T13:17:57.920Z,41.60
2022-08-17T13:20:29.513Z,41.98
2022-08-17T13:23:11.423Z,42.62
2022-08-17T13:25:54.629Z,43.33
2022-08-17T13:28:30.576Z,43.89
2022-08-17T13:31:24.592Z,43.99
2022-08-17T13:34:13.312Z,44.07
2022-08-17T13:36:45.314Z,44.42
2022-08-17T13:39:20.592Z,44.36
2022-08-17T13:41:53.522Z,44.63
2022-08-17T13:44:36.843Z,44.78
2022-08-17T13:47:20.466Z,44.67
2022-08-17T13:49:55.537Z,44.54
2022-08-17T13:52:38.755Z,44.70
2022-08-17T13:55:17.726Z,44.13
2022-08-17T13:58:03.984Z,44.12
2022-08-17T14:00:39.844Z,43.46
2022-08-17T14:03:11.395Z,43.89
2022-08-17T14:05:42.887Z,43.97
2022-08-17T14:08:15.192Z,44.16
2022-08-17T14:10:47.304Z,43.94
2022-08-17T14:13:18.973Z,43.96
2022-08-17T14:15:55.452Z,44.18
2022-08-17T14:18:51.999Z,44.07
2022-08-17T14:21:20.096Z,43.93
2022-08-17T14:23:54.915Z,44.32
2022-08-17T14:26:26.575Z,44.16
2022-08-17T14:28:57.953Z,44.34
2022-08-17T14:31:31.910Z,44.39
2022-08-17T14:34:06.809Z,44.10
2022-08-17T14:36:38.220Z,43.73
2022-08-17T14:39:09.660Z,44.11
2022-08-17T14:41:44.390Z,44.27
2022-08-17T14:44:15.819Z,44.18
2022-08-17T14:46:48.342Z,44.40
2022-08-17T14:49:21.028Z,44.38
2022-08-17T14:51:52.487Z,44.03
2022-08-17T14:54:33.729Z,43.97
2022-08-17T14:57:23.307Z,44.34
2022-08-17T14:59:59.695Z,44.12
2022-08-17T15:02:31.669Z,44.38
2022-08-17T15:05:03.640Z,44.89
2022-08-17T15:07:34.990Z,44.68
2022-08-17T15:10:06.860Z,44.65
2022-08-17T15:12:39.459Z,44.63
2022-08-17T15:15:13.121Z,44.66
2022-08-17T15:17:45.898Z,44.51
2022-08-17T15:20:19.379Z,44.66
2022-08-17T15:22:51.440Z,44.87
2022-08-17T15:25:23.034Z,44.79
2022-08-17T15:27:54.467Z,44.88
2022-08-17T15:30:30.117Z,45.05
2022-08-17T15:33:02.300Z,45.10
2022-08-17T15:35:35.296Z,45.35
2022-08-17T15:38:11.625Z,45.44
2022-08-17T15:40:44.914Z,45.58
2022-08-17T15:43:17.466Z,45.77
2022-08-17T15:45:54.850Z,45.94
2022-08-17T15:48:42.573Z,46.15
2022-08-17T15:51:15.843Z,46.51
2022-08-17T15:53:49.232Z,46.56
2022-08-17T15:56:21.021Z,46.69
2022-08-17T15:58:52.901Z,46.70
2022-08-17T16:02:14.259Z,47.00
2022-08-17T16:04:29.806Z,47.13
2022-08-17T16:07:02.697Z,47.31
2022-08-17T16:09:34.047Z,47.32
2022-08-17T16:12:12.097Z,47.40
2022-08-17T16:14:43.531Z,47.40
2022-08-17T16:17:38.554Z,47.65
2022-08-17T16:20:07.323Z,47.39
2022-08-17T16:22:39.509Z,47.49
2022-08-17T16:25:12.772Z,47.63
2022-08-17T16:27:44.358Z,47.81
2022-08-17T16:30:17.879Z,47.68
2022-08-17T16:32:51.747Z,47.83
2022-08-17T16:35:25.398Z,47.86
2022-08-17T16:37:57.509Z,48.04
2022-08-17T16:40:33.109Z,48.24
2022-08-17T16:43:10.868Z,48.13
2022-08-17T16:45:42.742Z,48.35
2022-08-17T16:48:15.697Z,48.53
2022-08-17T16:51:03.311Z,48.52
2022-08-17T16:53:36.056Z,48.52
2022-08-17T16:56:08.248Z,48.66
2022-08-17T16:58:41.251Z,48.50
2022-08-17T17:01:15.206Z,48.63
2022-08-17T17:03:48.643Z,49.06
2022-08-17T17:06:26.616Z,49.07
2022-08-17T17:09:00.402Z,49.29
2022-08-17T17:11:33.908Z,49.30
2022-08-17T17:14:06.798Z,49.49
2022-08-17T17:16:46.232Z,49.67
2022-08-17T17:19:34.569Z,49.87
2022-08-17T17:22:13.311Z,50.24
2022-08-17T17:24:50.272Z,50.03
2022-08-17T17:27:29.907Z,50.36
2022-08-17T17:30:06.399Z,50.60
2022-08-17T17:32:40.930Z,50.69
2022-08-17T17:35:17.769Z,51.03
2022-08-17T17:37:50.037Z,50.93
2022-08-17T17:40:24.078Z,51.27
2022-08-17T17:43:14.379Z,51.27
2022-08-17T17:45:53.808Z,51.41
2022-08-17T17:48:25.133Z,51.48
2022-08-17T17:51:03.020Z,51.84
2022-08-17T17:53:43.100Z,51.94
2022-08-17T17:56:43.731Z,52.22
2022-08-17T17:59:21.029Z,52.40
2022-08-17T18:01:57.705Z,52.31
2022-08-17T18:04:33.474Z,52.49
2022-08-17T18:07:17.284Z,52.69
2022-08-17T18:10:01.571Z,52.92
2022-08-17T18:12:38.110Z,52.95
2022-08-17T18:15:23.409Z,53.18
2022-08-17T18:18:20.127Z,53.28
2022-08-17T18:20:55.820Z,53.33
2022-08-17T18:23:28.769Z,53.38
2022-08-17T18:26:02.226Z,53.40
2022-08-17T18:28:34.854Z,53.61
2022-08-17T18:31:08.078Z,53.58
2022-08-17T18:33:40.065Z,53.63
2022-08-17T18:36:12.075Z,53.63
2022-08-17T18:38:43.892Z,53.80
2022-08-17T18:41:20.948Z,53.96
2022-08-17T18:44:02.755Z,54.14
2022-08-17T18:46:37.749Z,54.29
2022-08-17T18:49:25.871Z,54.43
2022-08-17T18:52:09.212Z,54.41
2022-08-17T18:54:40.715Z,54.61
2022-08-17T18:57:13.369Z,54.62
2022-08-17T18:59:45.898Z,54.98
2022-08-17T19:02:37.317Z,55.33
2022-08-17T19:05:26.723Z,55.28
2022-08-17T19:08:16.203Z,55.50
2022-08-17T19:10:48.888Z,55.67
2022-08-17T19:13:24.489Z,55.84
2022-08-17T19:16:14.459Z,55.94
2022-08-17T19:18:49.967Z,56.28
2022-08-17T19:21:23.780Z,56.43
2022-08-17T19:23:59.001Z,56.62
2022-08-17T19:26:55.163Z,56.50
2022-08-17T19:29:27.103Z,56.89
2022-08-17T19:31:59.412Z,57.16
2022-08-17T19:34:34.011Z,57.35
2022-08-17T19:37:09.386Z,57.29
2022-08-17T19:39:44.930Z,57.49
2022-08-17T19:42:18.630Z,57.71
2022-08-17T19:44:56.652Z,57.71
2022-08-17T19:47:53.853Z,57.77
2022-08-17T19:50:32.058Z,57.96
2022-08-17T19:53:08.241Z,57.81
2022-08-17T19:55:49.355Z,58.00
2022-08-17T19:58:26.237Z,58.18
2022-08-17T20:00:57.967Z,58.45
2022-08-17T20:03:52.631Z,58.68
2022-08-17T20:06:25.204Z,58.79
2022-08-17T20:09:00.150Z,58.95
2022-08-17T20:11:35.021Z,58.93
2022-08-17T20:14:09.694Z,59.20
2022-08-17T20:16:41.139Z,59.14
2022-08-17T20:19:18.846Z,59.44
2022-08-17T20:21:53.716Z,59.56
2022-08-17T20:24:30.410Z,59.78
2022-08-17T20:27:11.394Z,59.55
2022-08-17T20:30:02.781Z,59.80
2022-08-17T20:32:36.012Z,59.82
2022-08-17T20:35:22.768Z,60.13
2022-08-17T20:37:55.637Z,60.09
2022-08-17T20:40:28.737Z,60.00
2022-08-17T20:43:00.478Z,60.20
2022-08-17T20:45:50.596Z,60.20
2022-08-17T20:48:37.525Z,60.11
2022-08-17T20:51:20.612Z,60.33
2022-08-17T20:54:14.385Z,60.49
2022-08-17T20:56:58.071Z,60.55
2022-08-17T20:59:47.085Z,60.87
2022-08-17T21:02:22.395Z,60.64
2022-08-17T21:05:07.294Z,60.66
2022-08-17T21:07:55.987Z,60.90
2022-08-17T21:10:37.132Z,60.98
2022-08-17T21:13:25.477Z,61.25
2022-08-17T21:16:00.542Z,61.63
2022-08-17T21:18:39.021Z,61.83
2022-08-17T21:21:18.492Z,61.82
2022-08-17T21:24:00.781Z,61.87
2022-08-17T21:26:50.151Z,61.95
2022-08-17T21:29:31.967Z,61.89
2022-08-17T21:32:24.179Z,61.69
2022-08-17T21:35:14.279Z,61.74
2022-08-17T21:37:46.400Z,61.80
2022-08-17T21:40:25.214Z,61.74
2022-08-17T21:42:58.371Z,61.33
2022-08-17T21:45:32.452Z,61.57
2022-08-17T21:48:11.413Z,61.56
2022-08-17T21:50:44.564Z,61.60
2022-08-17T21:53:19.741Z,61.57
2022-08-17T21:55:51.893Z,61.41
2022-08-17T21:58:29.802Z,61.60
2022-08-17T22:01:19.132Z,61.57
2022-08-17T22:03:57.144Z,61.72
2022-08-17T22:06:29.377Z,61.45
2022-08-17T22:09:07.114Z,61.52
2022-08-17T22:11:53.016Z,61.73
2022-08-17T22:14:26.032Z,61.48
2022-08-17T22:17:11.202Z,61.59
2022-08-17T22:19:43.672Z,61.67
2022-08-17T22:22:26.651Z,61.88
2022-08-17T22:24:59.176Z,61.95
2022-08-17T22:27:48.338Z,62.05
2022-08-17T22:30:21.113Z,61.94
2022-08-17T22:32:53.140Z,61.97
2022-08-17T22:35:34.913Z,62.13
2022-08-17T22:38:23.225Z,62.18
2022-08-17T22:40:56.166Z,62.07
2022-08-17T22:43:30.082Z,62.22
2022-08-17T22:46:09.162Z,62.42
2022-08-17T22:48:48.099Z,62.38
2022-08-17T22:51:22.126Z,62.45
2022-08-17T22:54:11.857Z,62.77
2022-08-17T22:57:07.276Z,62.92
2022-08-17T22:59:42.464Z,63.13
2022-08-17T23:02:19.329Z,63.28
2022-08-17T23:04:52.953Z,63.21
2022-08-17T23:07:54.024Z,63.37
2022-08-17T23:10:25.829Z,63.45
2022-08-17T23:13:00.053Z,63.47
2022-08-17T23:15:33.990Z,63.55
2022-08-17T23:18:05.577Z,63.49
2022-08-17T23:20:38.261Z,63.55
2022-08-17T23:23:11.463Z,63.79
2022-08-17T23:25:45.003Z,63.76
2022-08-17T23:28:17.243Z,63.87
2022-08-17T23:30:48.848Z,64.01
2022-08-17T23:33:23.002Z,64.01
2022-08-17T23:35:54.510Z,64.15
2022-08-17T23:38:27.630Z,64.08
2022-08-17T23:41:01.539Z,64.31
2022-08-17T23:43:32.903Z,64.47
2022-08-17T23:46:04.333Z,64.39
2022-08-17T23:48:37.422Z,64.38
2022-08-17T23:51:11.168Z,64.27
2022-08-17T23:53:44.378Z,64.34
2022-08-17T23:56:16.066Z,64.38
2022-08-17T23:58:47.335Z,64.39
